Time;durP1;ratioP1;P1;durP2;ratioP2;P2;SDS_P1;SDS_P2;PMS_P1;PMS_P2;Temp;Humidity;BMP_temperature;BMP_pressure;BME280_temperature;BME280_humidity;BME280_pressure;Samples;Min_cycle;Max_cycle;Signal;HPM_P1;HPM_P2
2021/12/30 00:01:37;;;;;;;1.30;0.65;;;;;;;10.18;100.00;96675.16;5035046;28;20033;-65
2021/12/30 00:04:03;;;;;;;2.30;0.70;;;;;;;10.29;100.00;96685.09;5033577;28;20056;-68
2021/12/30 00:06:36;;;;;;;1.10;0.70;;;;;;;10.35;100.00;96685.63;5019580;28;20128;-63
2021/12/30 00:09:02;;;;;;;1.48;0.50;;;;;;;10.36;100.00;96697.38;5030337;28;20029;-66
2021/12/30 00:11:27;;;;;;;1.58;0.52;;;;;;;10.28;100.00;96696.41;5032682;28;20041;-65
2021/12/30 00:13:53;;;;;;;0.95;0.60;;;;;;;10.41;100.00;96694.34;5034938;28;20037;-64
2021/12/30 00:16:18;;;;;;;0.93;0.60;;;;;;;10.48;100.00;96692.50;5030837;28;20136;-64
2021/12/30 00:18:45;;;;;;;0.40;0.40;;;;;;;10.53;100.00;96691.41;5033766;28;20037;-65
2021/12/30 00:21:10;;;;;;;1.27;0.82;;;;;;;10.51;100.00;96697.25;5031878;28;20081;-65
2021/12/30 00:23:36;;;;;;;1.05;0.60;;;;;;;10.42;100.00;96698.66;5038747;28;20828;-65
2021/12/30 00:26:02;;;;;;;1.52;1.08;;;;;;;10.51;100.00;96710.97;5030888;28;20129;-65
2021/12/30 00:28:28;;;;;;;0.80;0.50;;;;;;;10.51;100.00;96710.13;5033316;28;20127;-65
2021/12/30 00:30:54;;;;;;;0.40;0.40;;;;;;;10.51;100.00;96707.41;5019683;28;20167;-65
2021/12/30 00:33:20;;;;;;;0.73;0.50;;;;;;;10.47;100.00;96717.50;5013228;28;20045;-64
2021/12/30 00:35:46;;;;;;;0.40;0.40;;;;;;;10.57;100.00;96719.66;5036310;28;20041;-65
2021/12/30 00:38:12;;;;;;;1.75;0.50;;;;;;;10.51;100.00;96719.16;5029823;28;20076;-66
2021/12/30 00:40:38;;;;;;;0.50;0.50;;;;;;;10.54;100.00;96731.31;5036212;28;20048;-65
2021/12/30 00:43:05;;;;;;;2.78;0.60;;;;;;;10.58;100.00;96734.13;5030831;28;20394;-67
2021/12/30 00:45:32;;;;;;;0.55;0.50;;;;;;;10.51;100.00;96737.53;5037732;28;20041;-66
2021/12/30 00:47:57;;;;;;;0.63;0.40;;;;;;;10.59;100.00;96741.16;5037973;28;20032;-65
2021/12/30 00:50:24;;;;;;;0.47;0.40;;;;;;;10.62;100.00;96756.88;5030875;28;20695;-65
2021/12/30 00:52:50;;;;;;;0.57;0.40;;;;;;;10.71;100.00;96746.47;5038186;28;20039;-65
2021/12/30 00:55:15;;;;;;;0.40;0.38;;;;;;;10.67;100.00;96740.94;5030820;28;20137;-66
2021/12/30 00:57:42;;;;;;;0.40;0.40;;;;;;;10.63;100.00;96745.56;5036843;28;20033;-65
2021/12/30 01:00:12;;;;;;;0.63;0.52;;;;;;;10.58;100.00;96747.81;5034907;28;20046;-66
2021/12/30 01:02:38;;;;;;;;;;;;;;;10.58;100.00;96747.81;5041440;28;20037;-66
2021/12/30 01:05:04;;;;;;;0.57;0.40;;;;;;;10.60;100.00;96762.72;5041814;28;19939;-66
2021/12/30 01:07:29;;;;;;;0.77;0.45;;;;;;;10.57;100.00;96765.41;5041051;28;20095;-65
2021/12/30 01:09:55;;;;;;;0.60;0.40;;;;;;;10.58;100.00;96773.25;5035544;28;20033;-65
2021/12/30 01:12:20;;;;;;;1.50;0.32;;;;;;;10.62;100.00;96771.34;5032545;28;20049;-65
2021/12/30 01:14:48;;;;;;;0.40;0.40;;;;;;;10.65;100.00;96783.56;5040664;28;20041;-65
2021/12/30 01:17:21;;;;;;;0.50;0.40;;;;;;;10.58;100.00;96781.47;5043061;28;20068;-66
2021/12/30 01:19:46;;;;;;;0.55;0.50;;;;;;;10.52;100.00;96780.19;5048154;28;20110;-66
2021/12/30 01:22:19;;;;;;;0.50;0.50;;;;;;;10.65;100.00;96792.53;5035949;28;20058;-64
2021/12/30 01:24:45;;;;;;;0.40;0.40;;;;;;;10.71;100.00;96788.38;5036551;28;20771;-64
2021/12/30 01:27:11;;;;;;;0.40;0.40;;;;;;;10.73;100.00;96798.16;5035362;28;20037;-64
2021/12/30 01:29:36;;;;;;;0.55;0.55;;;;;;;10.70;100.00;96791.47;5042769;28;20053;-65
2021/12/30 01:32:03;;;;;;;1.48;0.40;;;;;;;10.79;100.00;96797.50;5040339;28;20033;-65
2021/12/30 01:34:28;;;;;;;0.38;0.38;;;;;;;10.80;100.00;96803.75;5037257;28;20417;-64
2021/12/30 01:36:55;;;;;;;1.10;0.50;;;;;;;10.80;100.00;96803.75;5037549;28;20029;-65
2021/12/30 01:39:22;;;;;;;0.75;0.50;;;;;;;10.81;100.00;96808.09;5032811;28;20052;-65
2021/12/30 01:41:49;;;;;;;2.42;0.45;;;;;;;10.83;100.00;96820.25;5038445;28;20527;-64
2021/12/30 01:44:15;;;;;;;0.60;0.50;;;;;;;10.79;100.00;96824.88;5030754;28;20049;-65
2021/12/30 01:46:42;;;;;;;0.60;0.50;;;;;;;10.83;100.00;96831.22;5039503;28;20037;-65
2021/12/30 01:49:09;;;;;;;0.40;0.40;;;;;;;10.83;100.00;96819.47;5020318;28;20094;-63
2021/12/30 01:51:35;;;;;;;0.73;0.50;;;;;;;10.81;100.00;96825.31;5036102;28;20049;-65
2021/12/30 01:54:00;;;;;;;0.60;0.55;;;;;;;10.84;100.00;96819.09;5037754;28;20045;-65
2021/12/30 01:56:26;;;;;;;0.68;0.43;;;;;;;10.87;100.00;96820.31;5033139;28;20693;-63
2021/12/30 01:58:54;;;;;;;0.95;0.50;;;;;;;10.93;100.00;96832.56;5037767;28;20406;-62
2021/12/30 02:01:20;;;;;;;0.43;0.40;;;;;;;10.92;100.00;96835.69;5031817;28;20076;-65
2021/12/30 02:03:46;;;;;;;0.43;0.40;;;;;;;10.92;100.00;96835.69;5037463;28;20037;-65
2021/12/30 02:06:11;;;;;;;1.58;0.50;;;;;;;10.86;100.00;96838.72;5031448;28;20581;-66
2021/12/30 02:08:37;;;;;;;0.40;0.40;;;;;;;10.92;100.00;96833.72;5034894;28;20063;-64
2021/12/30 02:11:02;;;;;;;1.83;0.70;;;;;;;10.85;100.00;96837.13;5035829;28;20037;-67
2021/12/30 02:13:28;;;;;;;0.38;0.38;;;;;;;10.84;100.00;96848.44;5035058;28;20132;-64
2021/12/30 02:16:00;;;;;;;0.50;0.40;;;;;;;10.84;100.00;96862.13;5034557;28;20045;-63
2021/12/30 02:18:26;;;;;;;1.23;0.70;;;;;;;10.79;100.00;96870.69;5031761;28;20045;-64
2021/12/30 02:20:54;;;;;;;1.30;0.52;;;;;;;10.75;100.00;96872.53;5037647;28;20044;-63
2021/12/30 02:23:21;;;;;;;2.00;0.50;;;;;;;10.79;100.00;96867.94;5032642;28;20068;-65
2021/12/30 02:25:48;;;;;;;1.23;0.40;;;;;;;10.84;100.00;96873.09;5037705;28;20044;-66
2021/12/30 02:28:15;;;;;;;0.50;0.30;;;;;;;10.84;100.00;96873.91;5033528;28;20037;-64
2021/12/30 02:30:43;;;;;;;0.40;0.40;;;;;;;10.86;100.00;96876.28;5035781;28;20037;-66
2021/12/30 02:33:09;;;;;;;0.70;0.40;;;;;;;10.77;100.00;96878.44;5033361;28;20033;-65
2021/12/30 02:35:34;;;;;;;0.95;0.75;;;;;;;10.75;100.00;96889.78;5036967;28;20041;-65
2021/12/30 02:38:00;;;;;;;0.35;0.35;;;;;;;10.75;100.00;96888.97;5038738;28;20494;-66
2021/12/30 02:40:32;;;;;;;0.95;0.40;;;;;;;10.77;100.00;96903.09;5028812;28;20076;-66
2021/12/30 02:42:59;;;;;;;1.00;0.70;;;;;;;10.80;100.00;96900.44;5022354;28;20124;-65
2021/12/30 02:45:24;;;;;;;0.63;0.40;;;;;;;10.80;100.00;96900.44;5033423;28;20362;-65
2021/12/30 02:47:50;;;;;;;0.95;0.57;;;;;;;10.78;100.00;96899.22;5038675;28;20068;-66
2021/12/30 02:50:15;;;;;;;0.40;0.40;;;;;;;10.74;100.00;96898.38;5030540;28;20034;-65
2021/12/30 02:52:41;;;;;;;0.70;0.40;;;;;;;10.73;100.00;96908.50;5034927;28;20036;-65
2021/12/30 02:55:07;;;;;;;0.73;0.47;;;;;;;10.76;100.00;96898.78;5029704;28;20132;-65
2021/12/30 02:57:33;;;;;;;0.98;0.40;;;;;;;10.76;100.00;96912.50;5038076;28;20048;-65
2021/12/30 02:59:58;;;;;;;0.40;0.40;;;;;;;10.77;100.00;96914.06;5033626;28;20041;-64
2021/12/30 03:02:24;;;;;;;0.93;0.60;;;;;;;10.71;100.00;96914.38;5033694;28;20090;-64
2021/12/30 03:04:49;;;;;;;0.77;0.60;;;;;;;10.73;100.00;96915.94;5036748;28;20978;-65
2021/12/30 03:07:18;;;;;;;0.75;0.47;;;;;;;10.73;100.00;96919.47;5030076;28;20040;-65
2021/12/30 03:09:45;;;;;;;0.40;0.40;;;;;;;10.75;100.00;96919.94;5036492;28;20064;-65
2021/12/30 03:12:10;;;;;;;0.50;0.47;;;;;;;10.70;100.00;96918.25;5031555;28;20440;-65
2021/12/30 03:14:43;;;;;;;1.15;1.02;;;;;;;10.76;100.00;96928.94;5022003;28;20041;-65
2021/12/30 03:17:09;;;;;;;0.50;0.50;;;;;;;10.76;100.00;96932.44;5029474;28;20582;-64
2021/12/30 03:19:34;;;;;;;0.50;0.50;;;;;;;10.82;100.00;96939.25;5038567;28;20040;-64
2021/12/30 03:22:00;;;;;;;0.50;0.43;;;;;;;10.79;100.00;96930.94;5035520;28;20028;-64
2021/12/30 03:24:26;;;;;;;0.90;0.50;;;;;;;10.81;100.00;96934.91;5030674;28;20049;-64
2021/12/30 03:26:51;;;;;;;0.50;0.50;;;;;;;10.77;100.00;96935.97;5035568;28;20070;-66
2021/12/30 03:29:17;;;;;;;0.32;0.32;;;;;;;10.76;100.00;96934.41;5031111;28;20081;-65
2021/12/30 03:31:42;;;;;;;2.38;0.40;;;;;;;10.76;100.00;96926.19;5035902;28;20501;-65
2021/12/30 03:34:08;;;;;;;1.02;0.40;;;;;;;10.73;100.00;96930.44;5012671;28;20048;-64
2021/12/30 03:36:33;;;;;;;0.47;0.43;;;;;;;10.71;100.00;96927.25;5034806;28;20056;-64
2021/12/30 03:38:59;;;;;;;1.67;0.47;;;;;;;10.73;100.00;96927.69;5036194;28;20045;-64
2021/12/30 03:41:27;;;;;;;0.80;0.50;;;;;;;10.70;100.00;96921.00;5031162;28;20570;-64
2021/12/30 03:43:53;;;;;;;0.57;0.50;;;;;;;10.68;100.00;96933.50;5035319;28;20045;-64
2021/12/30 03:46:19;;;;;;;0.70;0.50;;;;;;;10.69;100.00;96930.38;5029589;28;20038;-64
2021/12/30 03:48:45;;;;;;;0.73;0.40;;;;;;;10.69;100.00;96933.09;5036477;28;20044;-64
2021/12/30 03:51:20;;;;;;;1.88;0.40;;;;;;;10.68;100.00;96939.75;5027425;28;20034;-64
2021/12/30 03:53:49;;;;;;;0.50;0.40;;;;;;;10.63;100.00;96931.81;5036119;28;20127;-64
2021/12/30 03:56:17;;;;;;;0.45;0.32;;;;;;;10.62;100.00;96932.19;5015261;28;20052;-65
2021/12/30 03:58:44;;;;;;;0.75;0.50;;;;;;;10.58;100.00;96939.53;5035507;28;20032;-64
2021/12/30 04:01:14;;;;;;;0.98;0.40;;;;;;;10.57;100.00;96941.50;5035479;28;20037;-64
2021/12/30 04:03:40;;;;;;;0.35;0.30;;;;;;;10.60;100.00;96948.97;5045262;28;20716;-64
2021/12/30 04:06:06;;;;;;;0.80;0.55;;;;;;;10.56;100.00;96950.06;5045444;28;20053;-63
2021/12/30 04:08:31;;;;;;;1.75;0.57;;;;;;;10.57;100.00;96957.09;5050932;28;20059;-64
2021/12/30 04:10:57;;;;;;;0.70;0.40;;;;;;;10.59;100.00;96954.78;5044241;28;20392;-66
2021/12/30 04:13:23;;;;;;;0.98;0.40;;;;;;;10.56;100.00;96961.81;5013639;28;20037;-63
2021/12/30 04:15:48;;;;;;;0.45;0.40;;;;;;;10.54;100.00;96957.84;5033359;28;20037;-63
2021/12/30 04:18:14;;;;;;;0.60;0.50;;;;;;;10.56;100.00;96975.50;5030719;28;20843;-65
2021/12/30 04:20:39;;;;;;;1.75;0.50;;;;;;;10.61;100.00;96963.47;5035493;28;20063;-65
2021/12/30 04:23:07;;;;;;;3.08;0.43;;;;;;;10.63;100.00;96966.66;5029046;28;20041;-64
2021/12/30 04:25:34;;;;;;;0.32;0.32;;;;;;;10.71;100.00;96968.34;5029918;28;20045;-64
2021/12/30 04:27:59;;;;;;;0.40;0.40;;;;;;;10.76;100.00;96978.25;5034734;28;20044;-63
2021/12/30 04:30:26;;;;;;;0.60;0.40;;;;;;;10.74;100.00;96986.03;5033539;28;20509;-64
2021/12/30 04:32:52;;;;;;;0.40;0.40;;;;;;;10.76;100.00;96986.47;5038688;28;20382;-65
2021/12/30 04:35:18;;;;;;;0.70;0.40;;;;;;;10.79;100.00;96992.00;5031437;28;20111;-64
2021/12/30 04:37:43;;;;;;;0.35;0.30;;;;;;;10.78;100.00;96987.69;5020712;28;20033;-66
2021/12/30 04:40:11;;;;;;;0.82;0.50;;;;;;;10.83;100.00;96981.13;5035509;28;20045;-65
2021/12/30 04:42:36;;;;;;;0.90;0.50;;;;;;;10.86;100.00;96972.97;5040033;28;20068;-65
2021/12/30 04:45:03;;;;;;;0.40;0.40;;;;;;;10.97;100.00;96975.13;5041829;28;20230;-65
2021/12/30 04:47:29;;;;;;;0.85;0.50;;;;;;;10.98;100.00;96982.19;5031682;28;20738;-65
2021/12/30 04:49:57;;;;;;;0.82;0.47;;;;;;;10.96;100.00;96981.75;5018435;28;20140;-64
2021/12/30 04:52:23;;;;;;;0.50;0.50;;;;;;;10.94;100.00;96984.88;5035338;28;20186;-64
2021/12/30 04:54:49;;;;;;;2.17;0.50;;;;;;;10.95;100.00;96991.13;5038575;28;20041;-64
2021/12/30 04:57:15;;;;;;;0.75;0.50;;;;;;;10.96;100.00;96984.50;5033448;28;20037;-65
2021/12/30 04:59:41;;;;;;;0.55;0.40;;;;;;;10.99;100.00;96986.53;5023817;28;20056;-64
2021/12/30 05:02:06;;;;;;;0.82;0.40;;;;;;;11.02;100.00;96992.06;5033712;28;20075;-64
2021/12/30 05:04:32;;;;;;;0.52;0.40;;;;;;;10.99;100.00;96990.06;5039614;28;20041;-64
2021/12/30 05:06:57;;;;;;;1.10;0.60;;;;;;;11.04;100.00;96991.72;5041301;28;20653;-65
2021/12/30 05:09:23;;;;;;;0.77;0.60;;;;;;;11.07;100.00;96997.28;5035852;28;20208;-64
2021/12/30 05:11:48;;;;;;;0.88;0.40;;;;;;;11.06;100.00;97006.63;5045560;28;20037;-65
2021/12/30 05:14:14;;;;;;;0.40;0.40;;;;;;;11.01;100.00;97004.19;5033501;28;20072;-65
2021/12/30 05:16:40;;;;;;;2.38;0.70;;;;;;;11.02;100.00;97004.97;5039577;28;20041;-64
2021/12/30 05:19:05;;;;;;;0.95;0.80;;;;;;;11.03;100.00;97007.34;5032181;28;20102;-64
2021/12/30 05:21:31;;;;;;;0.50;0.50;;;;;;;11.12;100.00;97004.38;5020785;28;20037;-64
2021/12/30 05:23:57;;;;;;;0.50;0.47;;;;;;;11.09;100.00;97011.41;5037958;28;20041;-64
2021/12/30 05:26:27;;;;;;;4.15;1.38;;;;;;;11.12;100.00;97018.09;5034119;28;20045;-64
2021/12/30 05:28:53;;;;;;;0.85;0.70;;;;;;;11.12;100.00;97020.84;5020891;28;20048;-64
2021/12/30 05:31:19;;;;;;;0.50;0.50;;;;;;;11.20;100.00;97030.78;5018217;28;20545;-63
2021/12/30 05:33:45;;;;;;;0.70;0.50;;;;;;;11.19;100.00;97033.91;5033047;28;20133;-65
2021/12/30 05:36:11;;;;;;;0.70;0.50;;;;;;;11.15;100.00;97035.78;5032830;28;20043;-66
2021/12/30 05:38:36;;;;;;;0.95;0.50;;;;;;;11.24;100.00;97033.59;5038778;28;20045;-65
2021/12/30 05:41:02;;;;;;;2.67;0.60;;;;;;;11.22;100.00;97038.66;5036078;28;20106;-65
2021/12/30 05:43:27;;;;;;;0.50;0.43;;;;;;;11.16;100.00;97035.41;5019479;28;20064;-65
2021/12/30 05:45:53;;;;;;;0.70;0.60;;;;;;;11.06;100.00;97036.78;5056632;28;20045;-65
2021/12/30 05:48:18;;;;;;;1.02;0.52;;;;;;;11.02;100.00;97038.69;5045017;28;20105;-65
2021/12/30 05:50:44;;;;;;;0.63;0.50;;;;;;;11.01;100.00;97037.06;5049946;28;20041;-64
2021/12/30 05:53:09;;;;;;;1.98;0.70;;;;;;;11.01;100.00;97034.34;5039450;28;20049;-64
2021/12/30 05:55:34;;;;;;;1.13;0.60;;;;;;;10.98;100.00;97045.22;5038356;28;20521;-64
2021/12/30 05:58:00;;;;;;;0.75;0.57;;;;;;;10.97;100.00;97038.19;5036178;28;20094;-64
2021/12/30 06:00:29;;;;;;;1.10;0.60;;;;;;;10.98;100.00;97051.50;5031771;28;20041;-64
2021/12/30 06:02:55;;;;;;;1.10;0.57;;;;;;;11.01;100.00;97050.78;5038723;28;20612;-64
2021/12/30 06:05:20;;;;;;;1.85;0.80;;;;;;;11.03;100.00;97064.91;5050185;28;20128;-64
2021/12/30 06:07:46;;;;;;;2.45;1.30;;;;;;;11.00;100.00;97065.66;5041313;28;20752;-63
2021/12/30 06:10:12;;;;;;;1.30;0.50;;;;;;;10.97;100.00;97071.06;5031144;28;20041;-63
2021/12/30 06:12:38;;;;;;;0.75;0.65;;;;;;;11.00;100.00;97067.56;5038480;28;20065;-64
2021/12/30 06:15:05;;;;;;;0.82;0.60;;;;;;;11.01;100.00;97085.63;5036106;28;20103;-62
2021/12/30 06:17:31;;;;;;;1.50;0.77;;;;;;;11.00;100.00;97092.25;5037461;28;20521;-64
2021/12/30 06:19:56;;;;;;;1.38;0.68;;;;;;;11.01;100.00;97091.88;5040260;28;20140;-64
2021/12/30 06:22:22;;;;;;;12.15;4.07;;;;;;;11.15;100.00;97102.38;5033569;28;20087;-65
2021/12/30 06:24:47;;;;;;;12.77;3.70;;;;;;;11.16;100.00;97103.16;5040402;28;20124;-65
2021/12/30 06:27:13;;;;;;;11.90;4.20;;;;;;;10.94;100.00;97099.19;5026460;28;20172;-65
2021/12/30 06:29:38;;;;;;;8.73;2.50;;;;;;;10.82;100.00;97111.88;5027602;28;20037;-64
2021/12/30 06:32:05;;;;;;;3.28;1.52;;;;;;;10.84;100.00;97111.47;5035952;28;20052;-61
2021/12/30 06:34:31;;;;;;;5.05;1.80;;;;;;;10.76;100.00;97109.75;5039608;28;20567;-64
2021/12/30 06:36:56;;;;;;;3.33;1.40;;;;;;;10.62;100.00;97121.97;5040278;28;20179;-64
2021/12/30 06:39:22;;;;;;;5.20;1.70;;;;;;;10.42;100.00;97109.38;5016713;28;20853;-64
2021/12/30 06:41:47;;;;;;;4.00;1.63;;;;;;;10.33;100.00;97115.84;5033117;28;20130;-63
2021/12/30 06:44:13;;;;;;;6.72;2.92;;;;;;;10.40;100.00;97117.94;5029724;28;20524;-62
2021/12/30 06:46:39;;;;;;;4.45;1.70;;;;;;;10.37;100.00;97117.84;5033740;28;20056;-64
2021/12/30 06:49:08;;;;;;;1.17;0.50;;;;;;;10.49;100.00;97115.81;5021507;28;20029;-64
2021/12/30 06:51:35;;;;;;;0.80;0.60;;;;;;;10.60;100.00;97118.78;5041417;28;20049;-64
2021/12/30 06:54:04;;;;;;;1.30;0.90;;;;;;;10.65;100.00;97113.03;5041095;28;20490;-63
2021/12/30 06:56:31;;;;;;;1.67;0.80;;;;;;;10.74;100.00;97103.84;5038461;28;20056;-63
2021/12/30 06:58:57;;;;;;;0.90;0.60;;;;;;;10.78;100.00;97102.75;5046286;28;20109;-63
2021/12/30 07:01:23;;;;;;;0.75;0.60;;;;;;;10.88;100.00;97107.69;5040477;28;20077;-64
2021/12/30 07:03:48;;;;;;;0.70;0.60;;;;;;;10.99;100.00;97118.88;5040318;28;20061;-66
2021/12/30 07:06:14;;;;;;;1.10;0.70;;;;;;;11.02;100.00;97122.81;5031469;28;20087;-65
2021/12/30 07:08:39;;;;;;;0.57;0.50;;;;;;;11.00;100.00;97122.41;5037555;28;20029;-65
2021/12/30 07:11:05;;;;;;;1.10;0.82;;;;;;;10.97;100.00;97131.34;5029163;28;20505;-64
2021/12/30 07:13:30;;;;;;;0.60;0.60;;;;;;;10.97;100.00;97134.88;5035985;28;20048;-64
2021/12/30 07:15:56;;;;;;;0.63;0.50;;;;;;;10.99;100.00;97134.53;5036563;28;20037;-65
2021/12/30 07:18:21;;;;;;;1.05;0.80;;;;;;;11.03;100.00;97141.66;5023472;28;20063;-65
2021/12/30 07:20:47;;;;;;;0.90;0.60;;;;;;;10.99;100.00;97149.03;5014422;28;20110;-66
2021/12/30 07:23:12;;;;;;;1.15;0.47;;;;;;;10.97;100.00;97154.06;5026482;28;20044;-63
2021/12/30 07:25:38;;;;;;;1.33;0.60;;;;;;;10.96;100.00;97160.69;5036948;28;20043;-63
2021/12/30 07:28:04;;;;;;;1.40;0.68;;;;;;;11.03;100.00;97151.84;5029131;28;20029;-63
2021/12/30 07:30:30;;;;;;;5.07;1.60;;;;;;;11.13;100.00;97155.94;5018073;28;20037;-64
2021/12/30 07:32:56;;;;;;;5.68;2.38;;;;;;;11.23;100.00;97155.38;5039020;28;20401;-64
2021/12/30 07:35:22;;;;;;;4.75;2.55;;;;;;;10.99;100.00;97153.72;5025600;28;20059;-64
2021/12/30 07:37:49;;;;;;;2.38;1.90;;;;;;;10.85;100.00;97162.41;5050535;28;20032;-63
2021/12/30 07:40:17;;;;;;;18.48;5.03;;;;;;;10.67;100.00;97160.03;5022642;28;20041;-64
2021/12/30 07:42:43;;;;;;;18.45;3.78;;;;;;;10.49;100.00;97169.78;5039863;28;20048;-64
2021/12/30 07:45:10;;;;;;;30.55;7.22;;;;;;;10.38;100.00;97166.00;5028032;28;20037;-64
2021/12/30 07:47:37;;;;;;;4.88;1.83;;;;;;;10.41;100.00;97171.56;5036235;28;20048;-64
2021/12/30 07:50:04;;;;;;;20.00;6.45;;;;;;;10.43;100.00;97177.47;5034143;28;20033;-65
2021/12/30 07:52:29;;;;;;;8.63;3.55;;;;;;;10.39;100.00;97181.25;5019287;28;20111;-63
2021/12/30 07:54:55;;;;;;;20.08;5.28;;;;;;;10.43;100.00;97195.88;5037533;28;20123;-65
2021/12/30 07:57:22;;;;;;;11.98;4.60;;;;;;;10.39;100.00;97189.47;5027403;28;20037;-65
2021/12/30 07:59:51;;;;;;;7.43;2.63;;;;;;;10.37;100.00;97209.03;5029191;28;20122;-65
2021/12/30 08:02:17;;;;;;;;;;;;;;;10.36;100.00;97212.91;5030086;28;20052;-64
2021/12/30 08:04:42;;;;;;;14.35;5.07;;;;;;;10.48;100.00;97215.56;5036701;28;19913;-64
2021/12/30 08:07:08;;;;;;;7.18;2.70;;;;;;;10.41;100.00;97211.84;5029586;28;20037;-65
2021/12/30 08:09:33;;;;;;;9.55;3.00;;;;;;;10.39;100.00;97214.94;5032356;28;20045;-65
2021/12/30 08:12:00;;;;;;;13.43;3.50;;;;;;;10.43;100.00;97217.78;5038642;28;20498;-66
2021/12/30 08:14:26;;;;;;;11.05;4.43;;;;;;;10.33;100.00;97219.88;5030886;28;20056;-65
2021/12/30 08:16:52;;;;;;;14.82;3.47;;;;;;;10.30;100.00;97219.75;5036923;28;20029;-64
2021/12/30 08:19:17;;;;;;;9.55;2.70;;;;;;;10.23;100.00;97223.09;5033388;28;20048;-64
2021/12/30 08:21:42;;;;;;;2.33;1.40;;;;;;;10.10;100.00;97227.84;5032327;28;20395;-64
2021/12/30 08:24:09;;;;;;;8.65;2.55;;;;;;;10.21;100.00;97225.41;5028052;28;20606;-64
2021/12/30 08:26:35;;;;;;;2.60;1.63;;;;;;;10.08;100.00;97221.13;5033175;28;20037;-64
2021/12/30 08:29:00;;;;;;;3.70;1.73;;;;;;;10.06;100.00;97220.69;5038444;28;20037;-64
2021/12/30 08:31:25;;;;;;;5.20;2.38;;;;;;;10.15;100.00;97226.78;5027622;28;20113;-65
2021/12/30 08:33:52;;;;;;;5.45;1.90;;;;;;;10.16;100.00;97228.41;5039068;28;20672;-65
2021/12/30 08:36:17;;;;;;;7.57;4.13;;;;;;;10.34;100.00;97226.16;5032697;28;20071;-65
2021/12/30 08:38:43;;;;;;;6.07;2.78;;;;;;;10.62;100.00;97238.97;5031875;28;20061;-64
2021/12/30 08:41:08;;;;;;;8.10;2.30;;;;;;;10.67;100.00;97228.53;5026642;28;20057;-66
2021/12/30 08:43:33;;;;;;;2.97;1.75;;;;;;;10.64;100.00;97240.22;5038644;28;20474;-64
2021/12/30 08:45:59;;;;;;;3.28;1.50;;;;;;;10.60;100.00;97238.53;5032124;28;20037;-64
2021/12/30 08:48:24;;;;;;;2.80;1.60;;;;;;;10.69;100.00;97241.88;5030825;28;20045;-64
2021/12/30 08:50:50;;;;;;;4.30;1.60;;;;;;;10.62;100.00;97245.22;5038983;28;20039;-66
2021/12/30 08:53:15;;;;;;;2.80;1.33;;;;;;;10.74;100.00;97235.34;5033087;28;20040;-63
2021/12/30 08:55:41;;;;;;;4.72;1.70;;;;;;;10.58;100.00;97240.81;5033692;28;20075;-64
2021/12/30 08:58:06;;;;;;;3.70;2.03;;;;;;;10.63;100.00;97246.03;5027090;28;20494;-65
2021/12/30 09:00:38;;;;;;;2.13;1.45;;;;;;;10.61;100.00;97248.34;5033845;28;20033;-65
2021/12/30 09:03:05;;;;;;;2.78;2.20;;;;;;;10.48;100.00;97242.16;5028212;28;20517;-64
2021/12/30 09:05:35;;;;;;;4.07;2.47;;;;;;;10.53;100.00;97247.34;5033105;28;20041;-64
2021/12/30 09:08:00;;;;;;;8.00;3.00;;;;;;;10.47;100.00;97246.81;5034323;28;20128;-62
2021/12/30 09:10:26;;;;;;;7.80;2.45;;;;;;;10.49;100.00;97250.00;5031317;28;20116;-62
2021/12/30 09:12:53;;;;;;;7.50;2.15;;;;;;;10.70;100.00;97257.19;5031281;28;20043;-62
2021/12/30 09:15:22;;;;;;;3.90;2.20;;;;;;;10.63;100.00;97255.03;5031894;28;20045;-63
2021/12/30 09:17:48;;;;;;;5.45;2.35;;;;;;;10.71;100.00;97259.56;5045381;28;20102;-62
2021/12/30 09:20:15;;;;;;;3.88;2.40;;;;;;;10.86;100.00;97254.44;5030207;28;20056;-63
2021/12/30 09:22:40;;;;;;;3.72;2.28;;;;;;;10.81;100.00;97262.91;5020603;28;20067;-63
2021/12/30 09:25:08;;;;;;;4.45;2.30;;;;;;;10.88;100.00;97255.66;5032603;28;20029;-63
2021/12/30 09:27:36;;;;;;;4.32;2.00;;;;;;;10.68;100.00;97271.22;5035843;28;20052;-63
2021/12/30 09:30:04;;;;;;;8.38;3.13;;;;;;;10.80;100.00;97253.09;5041984;28;20036;-64
2021/12/30 09:32:29;;;;;;;8.50;2.33;;;;;;;11.02;100.00;97259.88;5032109;28;20067;-63
2021/12/30 09:34:55;;;;;;;3.60;2.28;;;;;;;11.19;100.00;97259.50;5042318;28;20060;-64
2021/12/30 09:37:20;;;;;;;2.72;1.73;;;;;;;11.17;100.00;97261.03;5035390;28;20037;-64
2021/12/30 09:39:46;;;;;;;3.72;1.75;;;;;;;11.21;100.00;97265.41;5045157;28;20037;-65
2021/12/30 09:42:13;;;;;;;3.28;2.00;;;;;;;11.12;100.00;97261.28;5034085;28;20478;-65
2021/12/30 09:44:39;;;;;;;3.75;1.95;;;;;;;10.82;100.00;97265.31;5041579;28;20037;-64
2021/12/30 09:47:05;;;;;;;2.75;1.85;;;;;;;10.65;100.00;97266.44;5031757;28;20044;-63
2021/12/30 09:49:30;;;;;;;2.85;2.00;;;;;;;10.62;100.00;97261.66;5034368;28;20037;-64
2021/12/30 09:51:56;;;;;;;3.20;1.73;;;;;;;10.71;100.00;97264.22;5042307;28;20037;-64
2021/12/30 09:54:23;;;;;;;5.63;2.05;;;;;;;10.69;100.00;97256.34;5034359;28;20929;-63
2021/12/30 09:56:49;;;;;;;6.78;1.95;;;;;;;10.65;100.00;97252.75;5039863;28;20036;-64
2021/12/30 09:59:15;;;;;;;3.25;1.60;;;;;;;10.68;100.00;97254.78;5033934;28;20048;-64
2021/12/30 10:01:43;;;;;;;2.50;1.77;;;;;;;10.74;100.00;97260.00;5039032;28;20037;-65
2021/12/30 10:04:11;;;;;;;5.95;2.30;;;;;;;11.01;100.00;97256.34;5027740;28;20037;-65
2021/12/30 10:06:43;;;;;;;4.38;1.70;;;;;;;11.37;100.00;97254.41;5038189;28;20095;-65
2021/12/30 10:09:14;;;;;;;3.88;1.70;;;;;;;11.65;100.00;97245.22;5033172;28;20037;-65
2021/12/30 10:11:54;;;;;;;3.72;2.03;;;;;;;11.61;100.00;97239.66;5041259;28;20543;-65
2021/12/30 10:14:37;;;;;;;5.22;2.47;;;;;;;11.79;100.00;97234.53;5038877;28;20140;-64
2021/12/30 10:17:20;;;;;;;2.35;1.60;;;;;;;12.09;100.00;97239.44;5044124;28;20056;-65
2021/12/30 10:19:47;;;;;;;4.68;1.58;;;;;;;12.31;100.00;97237.88;5024859;28;20048;-64
2021/12/30 10:22:17;;;;;;;3.15;1.40;;;;;;;12.52;98.34;97240.22;5035469;28;20124;-64
2021/12/30 10:24:44;;;;;;;3.28;1.98;;;;;;;12.71;99.38;97241.31;5037890;28;20170;-64
2021/12/30 10:27:22;;;;;;;5.25;1.85;;;;;;;12.89;98.26;97245.16;5032192;28;20051;-64
2021/12/30 10:29:48;;;;;;;2.35;1.50;;;;;;;12.93;96.89;97246.00;5036372;28;20052;-66
2021/12/30 10:32:21;;;;;;;3.22;1.48;;;;;;;12.85;96.69;97238.00;5030963;28;20052;-66
2021/12/30 10:35:05;;;;;;;5.03;1.50;;;;;;;12.72;97.11;97235.47;5038901;28;20079;-65
2021/12/30 10:37:31;;;;;;;3.53;1.58;;;;;;;12.60;99.88;97228.22;5038145;28;20044;-65
2021/12/30 10:39:56;;;;;;;2.25;1.73;;;;;;;12.59;99.59;97221.13;5038818;28;20037;-65
2021/12/30 10:42:22;;;;;;;3.35;1.73;;;;;;;12.52;99.66;97220.22;5033855;28;20156;-65
2021/12/30 10:44:59;;;;;;;4.35;2.55;;;;;;;12.16;100.00;97223.09;5038591;28;20083;-66
2021/12/30 10:47:27;;;;;;;4.72;1.98;;;;;;;12.07;100.00;97225.28;5032573;28;20114;-66
2021/12/30 10:50:09;;;;;;;2.53;1.38;;;;;;;12.24;100.00;97224.03;5043708;28;20048;-64
2021/12/30 10:52:45;;;;;;;2.60;1.40;;;;;;;12.35;100.00;97221.47;5039379;28;20393;-65
2021/12/30 10:55:12;;;;;;;6.22;1.40;;;;;;;12.24;100.00;97218.53;5032530;28;20048;-66
2021/12/30 10:57:37;;;;;;;2.80;1.48;;;;;;;12.15;100.00;97223.47;5039028;28;20037;-66
2021/12/30 11:00:04;;;;;;;3.10;1.52;;;;;;;12.19;100.00;97227.06;5034643;28;20393;-65
2021/12/30 11:02:32;;;;;;;3.03;1.67;;;;;;;12.52;100.00;97222.97;5037543;28;20098;-63
2021/12/30 11:05:05;;;;;;;2.97;1.75;;;;;;;12.56;100.00;97212.81;4999830;28;20113;-65
2021/12/30 11:07:42;;;;;;;4.63;1.88;;;;;;;12.62;100.00;97212.16;5036529;28;20454;-65
2021/12/30 11:10:10;;;;;;;6.43;2.22;;;;;;;12.70;100.00;97213.06;5031616;28;20041;-65
2021/12/30 11:12:38;;;;;;;2.10;1.10;;;;;;;12.90;100.00;97216.50;5033289;28;20119;-65
2021/12/30 11:15:18;;;;;;;2.08;1.15;;;;;;;13.07;99.55;97215.19;5032566;28;20127;-65
2021/12/30 11:17:43;;;;;;;2.40;1.33;;;;;;;13.11;99.71;97213.28;5035000;28;20041;-66
2021/12/30 11:20:11;;;;;;;5.57;2.22;;;;;;;13.26;98.85;97217.03;5032287;28;20073;-64
2021/12/30 11:22:38;;;;;;;4.30;1.17;;;;;;;13.24;99.00;97224.06;5038962;28;20074;-65
2021/12/30 11:25:10;;;;;;;7.28;2.53;;;;;;;13.28;97.84;97227.66;5035696;28;20385;-64